Flight Track Log - Related Links

Times and Time Zones

All times are in EDT time to prevent confusion due to time zone crossing. See the DAL1117 flight status page for this flight to view local times or setup timezone preferences in your user account.

Time Position Orientation Groundspeed Altitude Reporting Facility
EDT Latitude Longitude Course Direction KTS MPH feet Rate Location/Type
Thu 09:51:19 PM 42.2314 -83.3342 North 163 188 1,500  Level Cleveland Center
Thu 09:51:52 PM 42.2572 -83.3292 North 179 206 2,600 1,585 Climbing FAA TRACON SMA TRACON (SMA)
Thu 09:52:12 PM 42.2772 -83.3278 North 210 242 2,900 732 Climbing FAA TRACON SMA TRACON (SMA)
Thu 09:52:33 PM 42.2956 -83.3256 North 239 275 3,100 1,200 Climbing FAA TRACON SMA TRACON (SMA)
Thu 09:52:52 PM 42.3222 -83.3222 North 264 304 3,700 2,100 Climbing FAA TRACON SMA TRACON (SMA)
Thu 09:53:13 PM 42.3436 -83.3331 339° North 273 314 4,500 2,195 Climbing FAA TRACON SMA TRACON (SMA)
Thu 09:53:33 PM 42.3597 -83.3631 306° West 284 327 5,200 2,308 Climbing FAA TRACON SMA TRACON (SMA)
Thu 09:53:52 PM 42.3703 -83.3922 296° West 282 325 6,000 3,000 Climbing FAA TRACON SMA TRACON (SMA)
Thu 09:54:13 PM 42.3753 -83.4319 280° West 277 319 7,200 3,450 Climbing FAA TRACON SMA TRACON (SMA)
Thu 09:54:32 PM 42.3775 -83.4628 276° West 289 333 8,300 2,769 Climbing FAA TRACON SMA TRACON (SMA)
Thu 09:54:52 PM 42.3800 -83.4922 277° West 275 316 9,000 2,634 Climbing FAA TRACON SMA TRACON (SMA)
Thu 09:55:13 PM 42.3839 -83.5350 277° West 279 321 10,100 3,000 Climbing FAA TRACON SMA TRACON (SMA)
Thu 09:55:32 PM 42.3858 -83.5669 275° West 279 321 11,000 2,550 Climbing FAA TRACON SMA TRACON (SMA)
Thu 09:55:53 PM 42.3878 -83.5989 275° West 279 321 11,800 1,756 Climbing FAA TRACON SMA TRACON (SMA)
Thu 09:56:13 PM 42.3908 -83.6369 276° West 282 325 12,200 1,200 Climbing FAA TRACON SMA TRACON (SMA)
Thu 09:56:33 PM 42.3933 -83.6756 275° West 316 364 12,600 1,350 Climbing FAA TRACON SMA TRACON (SMA)
Thu 09:56:53 PM 42.3961 -83.7128 276° West 323 372 13,100 2,250 Climbing FAA TRACON SMA TRACON (SMA)
Thu 09:57:13 PM 42.3992 -83.7597 275° West 328 377 14,100 2,634 Climbing FAA TRACON SMA TRACON (SMA)
Thu 09:57:34 PM 42.4017 -83.7969 275° West 326 375 14,900 1,846 Climbing FAA TRACON SMA TRACON (SMA)
Thu 09:57:52 PM 42.4042 -83.8347 275° West 327 376 15,300 1,692 Climbing FAA TRACON SMA TRACON (SMA)
Thu 09:58:13 PM 42.4072 -83.8842 275° West 343 395 16,000 1,650 Climbing FAA TRACON SMA TRACON (SMA)
Thu 09:58:32 PM 42.4103 -83.9244 276° West 352 405 16,400 1,350 Climbing FAA TRACON SMA TRACON (SMA)
Thu 09:58:53 PM 42.4131 -83.9658 275° West 359 413 16,900 1,950 Climbing FAA TRACON SMA TRACON (SMA)
Thu 09:59:12 PM 42.4161 -84.0181 275° West 362 417 17,700 2,615 Climbing FAA TRACON SMA TRACON (SMA)
Thu 09:59:32 PM 42.4189 -84.0600 275° West 362 417 18,600 2,341 Climbing FAA TRACON SMA TRACON (SMA)
Thu 09:59:53 PM 42.4214 -84.1014 275° West 361 415 19,300 1,950 Climbing FAA TRACON SMA TRACON (SMA)
Thu 10:00:12 PM 42.4250 -84.1533 275° West 362 417 19,900 1,500 Climbing FAA TRACON SMA TRACON (SMA)
Thu 10:00:33 PM 42.4275 -84.1958 275° West 364 419 20,300 1,500 Climbing FAA TRACON SMA TRACON (SMA)
Thu 10:00:52 PM 42.4289 -84.2383 273° West 367 422 20,900 1,692 Climbing FAA TRACON SMA TRACON (SMA)
Thu 10:01:12 PM 42.4300 -84.2814 272° West 370 426 21,400 1,610 Climbing FAA TRACON SMA TRACON (SMA)
Thu 10:01:33 PM 42.4311 -84.3358 272° West 374 430 22,000 1,350 Climbing FAA TRACON SMA TRACON (SMA)
Thu 10:01:52 PM 42.4325 -84.3794 272° West 376 433 22,300 1,200 Climbing FAA TRACON SMA TRACON (SMA)
Thu 10:02:13 PM 42.4339 -84.4353 272° West 383 441 22,800 1,317 Climbing FAA TRACON SMA TRACON (SMA)
Thu 10:02:33 PM 42.4353 -84.4803 272° West 388 447 23,200 923 Climbing FAA TRACON SMA TRACON (SMA)
Thu 10:02:52 PM 42.4358 -84.5033 272° West 390 449 23,400 1,286 Climbing FAA TRACON SMA TRACON (SMA)
Thu 10:04:25 PM 42.4422 -84.7431 272° West 401 461 25,600 1,325 Climbing Chicago Center
Thu 10:05:26 PM 42.4456 -84.8953 272° West 404 465 26,800 878 Climbing Chicago Center
Thu 10:06:28 PM 42.4486 -85.0514 272° West 412 474 27,400 585 Climbing Chicago Center
Thu 10:07:29 PM 42.4519 -85.2164 272° West 433 498 28,000 878 Climbing Chicago Center
Thu 10:08:31 PM 42.4558 -85.4161 272° West 442 509 29,200 1,161 Climbing Chicago Center
Thu 10:09:33 PM 42.4578 -85.5819 271° West 441 507 30,400 1,210 Climbing Chicago Center
Thu 10:10:35 PM 42.4606 -85.7425 271° West 429 494 31,700 780 Climbing Chicago Center
Thu 10:11:36 PM 42.4625 -85.9011 271° West 422 486 32,000 146 Climbing Chicago Center
Thu 10:12:38 PM 42.4647 -86.0550 271° West 411 473 32,000  Level Chicago Center
Thu 10:13:39 PM 42.4525 -86.2058 264° West 402 463 32,000  Level Chicago Center
Thu 10:14:41 PM 42.4342 -86.3517 260° West 394 453 32,000  Level Chicago Center
Thu 10:15:43 PM 42.4158 -86.4972 260° West 391 450 32,000  Level Chicago Center
Thu 10:16:44 PM 42.3969 -86.6425 260° West 391 450 32,000  Level Chicago Center
Thu 10:17:46 PM 42.3786 -86.8133 262° West 386 444 32,000  Level Chicago Center
Thu 10:18:47 PM 42.3586 -86.9525 259° West 380 437 32,000  Level Chicago Center
Thu 10:19:49 PM 42.3397 -87.0878 259° West 371 427 32,000  Level Chicago Center
Thu 10:20:51 PM 42.3208 -87.2236 259° West 371 427 32,000  Level Chicago Center
Thu 10:21:52 PM 42.3028 -87.3625 260° West 375 432 32,000  Level Chicago Center
Thu 10:22:54 PM 42.2806 -87.5281 260° West 378 435 32,000  Level Chicago Center
Thu 10:23:55 PM 42.2606 -87.6711 259° West 389 448 32,000  Level Chicago Center
Thu 10:24:57 PM 42.2408 -87.8150 260° West 393 452 32,000  Level Chicago Center
Thu 10:25:59 PM 42.2203 -87.9558 259° West 388 447 32,000  Level Chicago Center
Thu 10:27:00 PM 42.1961 -88.0947 257° West 384 442 32,000  Level Chicago Center
Thu 10:28:02 PM 42.1711 -88.2344 256° West 387 445 32,000  Level Chicago Center
Thu 10:29:03 PM 42.1414 -88.4025 257° West 388 447 32,000  Level Chicago Center
Thu 10:30:05 PM 42.1169 -88.5386 256° West 380 437 32,000  Level Chicago Center
Thu 10:31:07 PM 42.0919 -88.6775 256° West 385 443 32,000  Level Chicago Center
Thu 10:32:08 PM 42.0664 -88.8167 256° West 387 445 32,000  Level Chicago Center
Thu 10:33:10 PM 42.0406 -88.9583 256° West 390 449 32,000  Level Chicago Center
Thu 10:34:11 PM 42.0144 -89.1003 256° West 393 452 32,000  Level Chicago Center
Thu 10:35:12 PM 41.9817 -89.2742 256° West 403 464 32,000  Level Chicago Center
Thu 10:36:14 PM 41.9550 -89.4172 256° West 399 459 32,000  Level Chicago Center
Thu 10:37:15 PM 41.9292 -89.5597 256° West 397 457 32,000  Level Chicago Center
Thu 10:38:17 PM 41.9011 -89.7042 255° West 401 461 32,000  Level Chicago Center
Thu 10:39:18 PM 41.8739 -89.8478 256° West 402 463 32,000  Level Chicago Center
Thu 10:40:20 PM 41.8478 -89.9889 256° West 408 470 32,000  Level Chicago Center
Thu 10:41:21 PM 41.8211 -90.1272 256° West 393 452 32,000  Level Chicago Center
Thu 10:42:22 PM 41.7883 -90.2894 255° West 398 458 32,000  Level Chicago Center
Thu 10:43:24 PM 41.7600 -90.4322 255° West 398 458 32,000  Level Chicago Center
Thu 10:44:25 PM 41.7322 -90.5742 255° West 396 456 32,000  Level Chicago Center
Thu 10:45:26 PM 41.7022 -90.7233 255° West 396 456 32,000  Level Chicago Center
Thu 10:46:28 PM 41.6744 -90.8633 255° West 393 452 32,000  Level Chicago Center
Thu 10:47:29 PM 41.6458 -91.0008 254° West 387 445 32,000  Level Chicago Center
Thu 10:48:31 PM 41.6183 -91.1369 255° West 383 441 32,000  Level Chicago Center
Thu 10:49:32 PM 41.5847 -91.2989 255° West 379 436 32,000  Level Chicago Center
Thu 10:50:33 PM 41.5556 -91.4378 254° West 388 447 32,000  Level Chicago Center
Thu 10:51:35 PM 41.5272 -91.5753 255° West 387 445 32,000  Level Chicago Center
Thu 10:52:36 PM 41.5094 -91.7206 261° West 398 458 32,000  Level Chicago Center
Thu 10:53:37 PM 41.4953 -91.8686 263° West 402 463 32,000  Level Chicago Center
Thu 10:54:39 PM 41.4803 -92.0156 262° West 401 461 32,000  Level Chicago Center
Thu 10:55:40 PM 41.4667 -92.1628 263° West 401 461 32,000  Level Chicago Center
Thu 10:56:42 PM 41.4533 -92.3056 263° West 393 452 32,000 -49 Level Chicago Center
Thu 10:57:43 PM 41.4369 -92.4567 262° West 395 455 31,900  Descending Chicago Center
Thu 10:58:44 PM 41.4219 -92.6022 262° West 400 460 32,000 61 Climbing Chicago Center
Thu 10:59:21 PM 41.4108 -92.7208 263° West 401 461 32,000 61 Level Minneapolis Center
Thu 11:00:22 PM 41.3956 -92.8681 262° West 403 464 32,100  Climbing Minneapolis Center
Thu 11:01:23 PM 41.3803 -93.0122 262° West 400 460 32,000 -49 Descending Minneapolis Center
Thu 11:02:24 PM 41.3650 -93.1592 262° West 403 464 32,000  Level Minneapolis Center
Thu 11:03:25 PM 41.3489 -93.3069 262° West 405 466 32,000  Level Minneapolis Center
Thu 11:04:26 PM 41.3322 -93.4553 262° West 409 471 32,000  Level Minneapolis Center
Thu 11:05:27 PM 41.3167 -93.6014 262° West 404 465 32,000  Level Minneapolis Center
Thu 11:06:28 PM 41.2997 -93.7494 261° West 406 467 32,000  Level Minneapolis Center
Thu 11:07:29 PM 41.2836 -93.9022 262° West 416 479 32,000  Level Minneapolis Center
Thu 11:08:30 PM 41.2628 -94.0833 261° West 416 479 32,000  Level Minneapolis Center
Thu 11:09:31 PM 41.2458 -94.2236 261° West 415 478 32,000  Level Minneapolis Center
Thu 11:10:32 PM 41.2289 -94.3736 262° West 413 475 32,000  Level Minneapolis Center
Thu 11:11:33 PM 41.2117 -94.5242 261° West 412 474 32,000  Level Minneapolis Center
Thu 11:12:34 PM 41.1928 -94.6739 261° West 411 473 32,000  Level Minneapolis Center
Thu 11:13:35 PM 41.1750 -94.8217 261° West 407 468 32,000  Level Minneapolis Center
Thu 11:14:36 PM 41.1614 -94.9375 261° West 402 463 32,000  Level Minneapolis Center
Thu 11:15:37 PM 41.1358 -95.1381 260° West 394 453 32,000  Level Minneapolis Center
Thu 11:16:38 PM 41.1183 -95.2794 261° West 390 449 32,000  Level Minneapolis Center
Thu 11:17:39 PM 41.1000 -95.4206 260° West 388 447 32,000  Level Minneapolis Center
Thu 11:18:40 PM 41.0817 -95.5636 260° West 390 449 32,000  Level Minneapolis Center
Thu 11:19:41 PM 41.0631 -95.7072 260° West 392 451 32,000  Level Minneapolis Center
Thu 11:20:42 PM 41.0439 -95.8528 260° West 395 455 32,000  Level Minneapolis Center
Thu 11:21:43 PM 41.0250 -95.9992 260° West 399 459 32,000  Level Minneapolis Center
Thu 11:22:44 PM 41.0053 -96.1397 260° West 390 449 32,000  Level Minneapolis Center
Thu 11:23:45 PM 40.9881 -96.2800 261° West 385 443 32,000  Level Minneapolis Center
Thu 11:24:46 PM 40.9683 -96.4197 259° West 384 442 32,000  Level Minneapolis Center
Thu 11:25:47 PM 40.9489 -96.5614 260° West 388 447 32,000  Level Minneapolis Center
Thu 11:26:48 PM 40.9297 -96.7033 260° West 391 450 32,000  Level Minneapolis Center
Thu 11:27:48 PM 40.9131 -96.8433 261° West 387 445 32,000  Level Minneapolis Center
Thu 11:28:49 PM 40.9011 -96.9850 264° West 387 445 32,000  Level Minneapolis Center
Thu 11:29:50 PM 40.8875 -97.1256 263° West 387 445 32,000  Level Minneapolis Center
Thu 11:30:51 PM 40.8733 -97.2681 263° West 389 448 32,000  Level Minneapolis Center
Thu 11:32:04 PM 40.8550 -97.4592 263° West 392 451 32,000  Level Minneapolis Center
Thu 11:33:05 PM 40.8403 -97.6022 262° West 392 451 32,000  Level Minneapolis Center
Thu 11:34:06 PM 40.8244 -97.7464 262° West 395 455 32,000  Level Minneapolis Center
Thu 11:35:07 PM 40.8094 -97.8897 262° West 394 453 32,000  Level Minneapolis Center
Thu 11:36:07 PM 40.7958 -98.0344 263° West 396 456 32,000  Level Minneapolis Center
Thu 11:37:08 PM 40.7797 -98.1792 262° West 397 457 32,000  Level Minneapolis Center
Thu 11:38:09 PM 40.7647 -98.3253 262° West 399 459 32,000  Level Minneapolis Center
Thu 11:39:10 PM 40.7492 -98.4717 262° West 400 460 32,000 49 Level Minneapolis Center
Thu 11:40:11 PM 40.7328 -98.6192 262° West 402 463 32,100 295 Climbing Minneapolis Center
Thu 11:41:12 PM 40.7161 -98.7653 261° West 401 461 32,600 738 Climbing Minneapolis Center
Thu 11:42:13 PM 40.6997 -98.9075 261° West 394 453 33,600 689 Climbing Minneapolis Center
Thu 11:43:14 PM 40.6853 -99.0503 262° West 392 451 34,000 212 Climbing Minneapolis Center
Thu 11:44:06 PM 40.6706 -99.1672 261° West 397 457 34,000  Level Denver Center
Thu 11:45:07 PM 40.6528 -99.3147 261° West 404 465 34,000  Level Denver Center
Thu 11:46:09 PM 40.6369 -99.4614 262° West 403 464 34,000  Level Denver Center
Thu 11:47:10 PM 40.6192 -99.6072 261° West 403 464 34,000  Level Denver Center
Thu 11:48:11 PM 40.5978 -99.7819 261° West 403 464 34,000  Level Denver Center
Thu 11:49:12 PM 40.5797 -99.9331 261° West 412 474 34,000  Level Denver Center
Thu 11:50:13 PM 40.5617 -100.0756 261° West 413 475 34,000  Level Denver Center
Thu 11:51:14 PM 40.5442 -100.2200 261° West 417 480 34,000 49 Level Denver Center
Thu 11:52:15 PM 40.5228 -100.3911 261° West 422 486 34,100  Climbing Denver Center
Thu 11:53:17 PM 40.5042 -100.5367 261° West 421 484 34,000 -49 Descending Denver Center
Thu 11:54:18 PM 40.4856 -100.6808 260° West 416 479 34,000  Level Denver Center
Thu 11:55:19 PM 40.4639 -100.8500 260° West 417 480 34,000  Level Denver Center
Thu 11:56:20 PM 40.4447 -100.9967 260° West 422 486 34,000  Level Denver Center
Thu 11:57:21 PM 40.4247 -101.1433 260° West 424 488 34,000  Level Denver Center
Thu 11:58:22 PM 40.4019 -101.3128 260° West 422 486 34,000  Level Denver Center
Thu 11:59:24 PM 40.3822 -101.4569 260° West 420 483 34,000  Level Denver Center
Fri 12:00:25 AM 40.3611 -101.6014 259° West 420 483 34,000  Level Denver Center
Fri 12:01:26 AM 40.3375 -101.7714 260° West 424 488 34,000  Level Denver Center
Fri 12:02:27 AM 40.3167 -101.9144 259° West 419 482 34,000  Level Denver Center
Fri 12:03:28 AM 40.2922 -102.0833 259° West 421 484 34,000  Level Denver Center
Fri 12:04:29 AM 40.2722 -102.2275 260° West 422 486 34,000  Level Denver Center
Fri 12:05:30 AM 40.2494 -102.3711 258° West 421 484 34,000  Level Denver Center
Fri 12:06:31 AM 40.2264 -102.5378 260° West 416 479 34,000  Level Denver Center
Fri 12:07:32 AM 40.2036 -102.6783 258° West 414 476 34,000  Level Denver Center
Fri 12:08:34 AM 40.1819 -102.8231 259° West 417 480 34,000  Level Denver Center
Fri 12:09:35 AM 40.1589 -102.9736 259° West 420 483 34,000  Level Denver Center
Fri 12:10:36 AM 40.1358 -103.1272 259° West 428 493 34,000  Level Denver Center
Fri 12:11:37 AM 40.1122 -103.2842 259° West 436 502 34,000  Level Denver Center
Fri 12:12:38 AM 40.0889 -103.4347 259° West 421 484 34,000 -49 Level Denver Center
Fri 12:13:39 AM 40.0639 -103.5850 258° West 419 482 33,900  Descending Denver Center
Fri 12:14:40 AM 40.0406 -103.7369 259° West 425 489 34,000 49 Climbing Denver Center
Fri 12:15:41 AM 40.0119 -103.9150 258° West 427 491 34,000  Level Denver Center
Fri 12:16:43 AM 39.9872 -104.0653 258° West 419 482 34,000  Level Denver Center
Fri 12:17:44 AM 39.9625 -104.2172 258° West 425 489 34,000  Level Denver Center
Fri 12:18:45 AM 39.9372 -104.3678 258° West 423 487 34,000  Level Denver Center
Fri 12:19:46 AM 39.9125 -104.5169 258° West 422 486 34,000  Level Denver Center
Fri 12:20:47 AM 39.8886 -104.6658 258° West 421 484 34,000  Level Denver Center
Fri 12:21:48 AM 39.8581 -104.8111 255° West 416 479 34,000  Level Denver Center
Fri 12:22:49 AM 39.8297 -104.9619 256° West 427 491 34,000  Level Denver Center
Fri 12:23:50 AM 39.8003 -105.1108 256° West 425 489 34,000  Level Denver Center
Fri 12:24:51 AM 39.7711 -105.2614 256° West 426 490 34,000  Level Denver Center
Fri 12:25:52 AM 39.7417 -105.4128 256° West 428 493 34,000  Level Denver Center
Fri 12:26:53 AM 39.7108 -105.5639 255° West 427 491 34,000  Level Denver Center
Fri 12:27:55 AM 39.6803 -105.7158 255° West 431 496 34,000  Level Denver Center
Fri 12:28:56 AM 39.6467 -105.8861 256° West 414 476 34,000  Level Denver Center
Fri 12:29:57 AM 39.6158 -106.0364 255° West 424 488 34,000  Level Denver Center
Fri 12:30:58 AM 39.5875 -106.1781 255° West 429 494 34,000  Level Denver Center
Fri 12:31:59 AM 39.5608 -106.3133 256° West 432 497 34,000  Level Denver Center
Fri 12:33:00 AM 39.5297 -106.4636 255° West 433 498 34,000  Level Denver Center
Fri 12:34:01 AM 39.4942 -106.6333 255° West 431 496 34,000  Level Denver Center
Fri 12:35:02 AM 39.4586 -106.8025 255° West 436 502 34,000  Level Denver Center
Fri 12:36:03 AM 39.4275 -106.9442 254° West 430 495 34,000  Level Denver Center
Fri 12:37:04 AM 39.3911 -107.0869 252° West 435 501 34,000  Level Denver Center
Fri 12:38:05 AM 39.3492 -107.2542 252° West 437 503 34,000  Level Denver Center
Fri 12:39:06 AM 39.3117 -107.3997 252° West 443 510 34,000  Level Denver Center
Fri 12:40:07 AM 39.2756 -107.5419 252° West 438 504 34,000  Level Denver Center
Fri 12:41:08 AM 39.2319 -107.7108 252° West 441 507 34,000  Level Denver Center
Fri 12:42:09 AM 39.1947 -107.8547 252° West 441 507 34,000  Level Denver Center
Fri 12:43:09 AM 39.1581 -107.9978 252° West 438 504 34,000  Level Denver Center
Fri 12:44:10 AM 39.1147 -108.1642 251° West 436 502 34,000  Level Denver Center
Fri 12:45:11 AM 39.0769 -108.3081 251° West 439 505 34,000  Level Denver Center
Fri 12:46:12 AM 39.0394 -108.4489 251° West 435 501 34,000  Level Denver Center
Fri 12:47:13 AM 39.0017 -108.5925 251° West 438 504 34,000  Level Denver Center
Fri 12:48:14 AM 38.9578 -108.7581 251° West 439 505 34,000  Level Denver Center
Fri 12:49:14 AM 38.9200 -108.8978 251° West 432 497 34,000  Level Denver Center
Fri 12:50:15 AM 38.8819 -109.0394 251° West 437 503 34,000  Level Denver Center
Fri 12:51:16 AM 38.8364 -109.2053 251° West 440 506 34,000  Level Denver Center
Fri 12:52:16 AM 38.7975 -109.3464 251° West 440 506 34,000  Level Denver Center
Fri 12:53:17 AM 38.7592 -109.4883 251° West 441 507 34,000  Level Denver Center
Fri 12:54:18 AM 38.7128 -109.6514 250° West 436 502 34,000  Level Denver Center
Fri 12:55:18 AM 38.6739 -109.7925 251° West 438 504 34,000  Level Denver Center
Fri 12:55:56 AM 38.6489 -109.8889 252° West 439 505 34,000  Level Salt Lake Center
Fri 12:56:57 AM 38.6092 -110.0283 250° West 437 503 34,000  Level Salt Lake Center
Fri 12:57:20 AM 38.5878 -110.0961 248° West 437 503 34,000  Level Denver Center
Fri 12:57:58 AM 38.5639 -110.1933 253° West 441 507 34,000  Level Salt Lake Center
Fri 12:58:59 AM 38.5086 -110.3272 242° Southwest 443 510 34,000  Level Salt Lake Center
Fri 01:00:00 AM 38.4458 -110.4553 238° Southwest 445 512 34,000  Level Salt Lake Center
Fri 01:00:22 AM 38.4133 -110.5181 237° Southwest 444 511 34,000  Level Denver Center
Fri 01:01:22 AM 38.3506 -110.6464 238° Southwest 445 512 34,000  Level Denver Center
Fri 01:02:02 AM 38.3108 -110.7331 240° Southwest 444 511 34,000  Level Salt Lake Center
Fri 01:03:03 AM 38.2467 -110.8603 237° Southwest 445 512 34,000  Level Salt Lake Center
Fri 01:03:24 AM 38.2186 -110.9156 237° Southwest 444 511 34,000  Level Denver Center
Fri 01:04:04 AM 38.1786 -110.9953 237° Southwest 445 512 34,000  Level Salt Lake Center
Fri 01:05:05 AM 38.1122 -111.1300 238° Southwest 448 516 34,000  Level Salt Lake Center
Fri 01:06:06 AM 38.0467 -111.2628 238° Southwest 446 513 34,000  Level Salt Lake Center
Fri 01:07:07 AM 37.9794 -111.3967 238° Southwest 450 518 34,000  Level Salt Lake Center
Fri 01:08:08 AM 37.9133 -111.5311 238° Southwest 451 519 34,000  Level Salt Lake Center
Fri 01:09:09 AM 37.8314 -111.6878 237° Southwest 446 513 34,000  Level Salt Lake Center
Fri 01:10:09 AM 37.7647 -111.8219 238° Southwest 448 516 34,000  Level Salt Lake Center
Fri 01:11:10 AM 37.6969 -111.9550 237° Southwest 450 518 34,000  Level Salt Lake Center
Fri 01:12:11 AM 37.6286 -112.0872 237° Southwest 450 518 34,000  Level Salt Lake Center
Fri 01:13:12 AM 37.5617 -112.2200 238° Southwest 448 516 34,000  Level Salt Lake Center
Fri 01:14:13 AM 37.4925 -112.3522 237° Southwest 450 518 34,000  Level Salt Lake Center
Fri 01:15:13 AM 37.4236 -112.4847 237° Southwest 450 518 34,000  Level Salt Lake Center
Fri 01:16:14 AM 37.3542 -112.6194 237° Southwest 453 521 34,000  Level Salt Lake Center
Fri 01:16:36 AM 37.3261 -112.6731 237° Southwest 454 522 34,000  Level Los Angeles Center
Fri 01:17:15 AM 37.2842 -112.7531 237° Southwest 453 521 34,000  Level Salt Lake Center
Fri 01:18:16 AM 37.2150 -112.8858 237° Southwest 451 519 34,000  Level Salt Lake Center
Fri 01:19:17 AM 37.1464 -113.0167 237° Southwest 449 517 34,000  Level Salt Lake Center
Fri 01:19:40 AM 37.1178 -113.0675 235° Southwest 446 513 34,000  Level Los Angeles Center
Fri 01:20:42 AM 37.0497 -113.1989 237° Southwest 448 516 34,000  Level Los Angeles Center
Fri 01:21:43 AM 36.9794 -113.3281 236° Southwest 450 518 34,000 -590 Level Los Angeles Center
Fri 01:22:44 AM 36.9114 -113.4581 237° Southwest 448 516 32,800 -2,213 Descending Los Angeles Center
Fri 01:23:45 AM 36.8417 -113.5869 236° Southwest 448 516 29,500 -2,878 Descending Los Angeles Center
Fri 01:24:47 AM 36.7742 -113.7136 236° Southwest 441 507 26,900 -2,488 Descending Los Angeles Center
Fri 01:25:48 AM 36.7094 -113.8353 236° Southwest 424 488 24,400 -2,410 Descending Los Angeles Center
Fri 01:26:49 AM 36.6456 -113.9533 236° Southwest 414 476 22,000 -2,607 Descending Los Angeles Center
Fri 01:27:50 AM 36.5711 -114.0906 236° Southwest 400 460 19,100 -2,754 Descending Los Angeles Center
Fri 01:28:51 AM 36.5183 -114.2081 241° Southwest 391 450 16,400 -2,587 Descending Los Angeles Center
Fri 01:29:39 AM 36.4781 -114.3039 242° Southwest 379 436 14,400 -2,214 Descending Los Angeles Center
Fri 01:30:34 AM 36.4333 -114.4050 241° Southwest 364 419 12,600 -1,520 Descending Los Angeles Center
Fri 01:30:54 AM 36.4203 -114.4206 224° Southwest 365 420 12,500 -857 Descending Los Angeles Center
Fri 01:31:16 AM 36.4003 -114.4697 243° Southwest 328 377 12,000 -1,082 Descending Los Angeles Center
Fri 01:31:55 AM 36.3611 -114.4992 211° Southwest 327 376 11,400 -1,377 Descending Los Angeles Center
Fri 01:32:17 AM 36.3275 -114.5319 218° Southwest 307 353 10,600 -1,574 Descending Los Angeles Center
Fri 01:32:56 AM 36.2908 -114.5558 208° Southwest 302 348 9,800 -1,215 Descending Los Angeles Center
Fri 01:33:36 AM 36.2386 -114.5994 214° Southwest 288 331 9,000 -885 Descending Los Angeles Center
Fri 01:33:57 AM 36.2233 -114.6092 207° Southwest 292 336 8,900 -806 Descending Los Angeles Center
Fri 01:34:43 AM 36.1689 -114.6550 214° Southwest 249 287 8,100 -885 Descending Los Angeles Center
Fri 01:34:58 AM 36.1525 -114.6642 204° Southwest 261 300 8,000 -111 Descending Los Angeles Center
Fri 01:35:37 AM 36.1169 -114.6939 214° Southwest 243 280 8,000  Level Los Angeles Center
Fri 01:36:00 AM 36.0969 -114.7081 210° Southwest 242 278 8,000 -269 Level Los Angeles Center
Fri 01:36:44 AM 36.0833 -114.7667 254° West 234 269 7,700 -492 Descending Los Angeles Center
Fri 01:37:01 AM 36.0772 -114.7856 248° West 238 274 7,500 -1,167 Descending Los Angeles Center
Fri 01:37:20 AM 36.0744 -114.8147 263° West 225 259 7,000 -984 Descending Los Angeles Center
Fri 01:38:02 AM 36.0725 -114.8592 267° West 225 259 6,500 -984 Descending Los Angeles Center
Fri 01:38:21 AM 36.0744 -114.8839 276° West 210 242 6,000 -1,377 Descending Los Angeles Center
Fri 01:39:03 AM 36.0736 -114.9261 269° West 211 243 5,100 -1,164 Descending Los Angeles Center
Fri 01:39:28 AM 36.0725 -114.9539 267° West 191 220 4,700 -984 Descending Los Angeles Center
Fri 01:40:04 AM 36.0736 -114.9914 272° West 200 230 4,100 -1,082 Descending Los Angeles Center
Fri 01:40:29 AM 36.0725 -115.0231 268° West 187 215 3,600 -885 Descending Los Angeles Center
Fri 01:41:05 AM 36.0742 -115.0528 274° West 190 219 3,200 -778 Descending Los Angeles Center
Fri 01:41:23 AM 36.0742 -115.0703 270° West 166 191 2,900 -787 Descending Los Angeles Center
Fri 01:42:06 AM 36.0736 -115.1031 269° West 171 197 2,400 -462 Descending Los Angeles Center
Fri 01:43:07 AM 36.0739 -115.1472 270° West 147 169 2,100 -295 Descending Los Angeles Center

Login

Don't have an account? Register now (free) for customized features, flight alerts, and more!